Time;durP1;ratioP1;P1;durP2;ratioP2;P2;SDS_P1;SDS_P2;PMS_P1;PMS_P2;Temp;Humidity;BMP_temperature;BMP_pressure;BME280_temperature;BME280_humidity;BME280_pressure;Samples;Min_cycle;Max_cycle;Signal;HPM_P1;HPM_P2
2021/12/19 00:01:31;;;;;;;;;44.25;29.75;;;;;14.84;89.75;103016.09;5029205;28;47018;-82
2021/12/19 00:04:22;;;;;;;;;57.25;32.50;;;;;14.78;89.65;103001.28;5055847;28;45292;-80
2021/12/19 00:09:32;;;;;;;;;35.00;24.25;;;;;14.80;90.10;102994.09;5048634;28;45312;-82
2021/12/19 00:12:01;;;;;;;;;43.25;28.25;;;;;14.87;90.08;102989.31;5048651;28;46530;-83
2021/12/19 00:14:26;;;;;;;;;49.75;30.75;;;;;14.84;90.08;102995.66;5052988;28;45243;-82
2021/12/19 00:16:54;;;;;;;;;46.00;30.00;;;;;14.84;90.17;102995.66;5028716;28;45497;-82
2021/12/19 00:19:19;;;;;;;;;36.00;30.00;;;;;14.82;90.03;102983.38;5018346;28;45515;-81
2021/12/19 00:21:46;;;;;;;;;41.25;29.25;;;;;14.83;90.06;102980.66;5036247;28;46022;-81
2021/12/19 00:24:12;;;;;;;;;40.25;26.75;;;;;14.78;89.95;102982.66;5038851;28;45440;-83
2021/12/19 00:26:38;;;;;;;;;45.50;32.00;;;;;14.80;90.26;102977.28;5021202;28;45227;-82
2021/12/19 00:29:04;;;;;;;;;45.75;30.50;;;;;14.79;89.90;102971.09;5036956;28;45325;-82
2021/12/19 00:31:31;;;;;;;;;42.75;28.75;;;;;14.79;90.15;102963.09;5038092;28;45520;-82
2021/12/19 00:33:56;;;;;;;;;45.00;30.25;;;;;14.81;89.75;102966.56;5037936;28;45314;-82
2021/12/19 00:36:22;;;;;;;;;34.00;27.50;;;;;14.82;90.19;102962.97;5017287;28;45362;-82
2021/12/19 00:38:47;;;;;;;;;47.00;28.25;;;;;14.81;89.97;102963.91;5038450;28;45544;-82
2021/12/19 00:41:13;;;;;;;;;35.25;25.50;;;;;14.71;90.13;102964.44;5038894;28;45464;-82
2021/12/19 00:46:08;;;;;;;;;36.25;19.50;;;;;14.71;90.25;102959.97;5038322;28;45304;-82
2021/12/19 00:48:40;;;;;;;;;33.75;25.50;;;;;14.74;89.77;102959.84;5020800;28;45527;-83
2021/12/19 00:51:07;;;;;;;;;32.50;24.25;;;;;14.72;89.95;102959.03;5020411;28;47483;-82
2021/12/19 00:53:33;;;;;;;;;36.00;24.25;;;;;14.67;90.22;102958.38;5034444;28;45647;-83
2021/12/19 00:55:59;;;;;;;;;34.00;26.75;;;;;14.68;89.92;102959.25;5033304;28;45742;-83
2021/12/19 00:58:24;;;;;;;;;44.50;24.50;;;;;14.62;90.39;102955.09;5006435;28;45522;-82
2021/12/19 01:00:50;;;;;;;;;36.50;26.50;;;;;14.57;90.37;102951.78;5041778;28;45514;-82
2021/12/19 01:03:16;;;;;;;;;35.75;23.50;;;;;14.54;90.49;102952.84;5023764;28;45812;-83
2021/12/19 01:05:42;;;;;;;;;28.75;23.00;;;;;14.61;90.31;102945.41;5041682;28;45459;-82
2021/12/19 01:08:08;;;;;;;;;41.00;25.50;;;;;14.53;90.91;102951.09;5042305;28;45460;-82
2021/12/19 01:10:35;;;;;;;;;31.75;24.25;;;;;14.56;90.81;102945.66;5023793;28;48007;-82
2021/12/19 01:13:02;;;;;;;;;34.25;23.50;;;;;14.54;90.78;102941.34;5021545;28;45794;-82
2021/12/19 01:15:28;;;;;;;;;30.75;27.50;;;;;14.52;90.73;102948.50;5041873;28;45511;-82
2021/12/19 01:17:54;;;;;;;;;37.75;22.75;;;;;14.45;91.01;102947.09;5041121;28;45289;-82
2021/12/19 01:20:28;;;;;;;;;34.25;25.00;;;;;14.43;91.06;102941.84;5041258;28;45747;-82
2021/12/19 01:22:55;;;;;;;;;42.00;27.00;;;;;14.43;90.99;102939.19;5041530;28;45331;-82
2021/12/19 01:25:20;;;;;;;;;31.00;24.75;;;;;14.42;90.97;102945.44;5039890;28;45564;-83
2021/12/19 01:27:46;;;;;;;;;31.00;22.25;;;;;14.37;91.23;102939.47;5040628;28;45387;-83
2021/12/19 01:30:13;;;;;;;;;32.75;21.00;;;;;14.42;91.46;102955.22;5041617;28;46110;-83
2021/12/19 01:32:40;;;;;;;;;26.50;18.75;;;;;14.42;91.12;102941.91;5023481;28;45432;-83
2021/12/19 01:35:07;;;;;;;;;23.75;19.75;;;;;14.44;90.91;102945.38;5041253;28;45265;-82
2021/12/19 01:37:32;;;;;;;;;29.50;21.25;;;;;14.39;91.12;102942.91;5033258;28;45545;-83
2021/12/19 01:39:58;;;;;;;;;39.25;22.00;;;;;14.36;91.31;102945.72;5041044;28;46327;-83
2021/12/19 01:42:30;;;;;;;;;31.00;23.50;;;;;14.49;91.06;102946.00;5022057;28;46094;-83
2021/12/19 01:44:56;;;;;;;;;27.25;19.50;;;;;14.45;91.29;102952.41;5040575;28;45271;-83
2021/12/19 01:47:21;;;;;;;;;29.75;21.25;;;;;14.38;91.23;102943.84;5020423;28;45662;-82
2021/12/19 01:49:47;;;;;;;;;26.50;17.75;;;;;14.40;91.38;102946.44;5036949;28;45400;-83
2021/12/19 01:52:12;;;;;;;;;24.25;17.25;;;;;14.35;91.47;102943.13;5034743;28;45364;-83
2021/12/19 01:54:38;;;;;;;;;32.00;21.25;;;;;14.38;91.47;102935.00;5020221;28;45622;-83
2021/12/19 01:57:03;;;;;;;;;23.50;18.50;;;;;14.46;91.23;102946.16;5018611;28;45305;-83
2021/12/19 01:59:29;;;;;;;;;25.75;21.50;;;;;14.45;91.56;102932.00;5040825;28;45598;-82
2021/12/19 02:01:56;;;;;;;;;30.75;22.00;;;;;14.45;91.67;102925.84;5013856;28;45527;-82
2021/12/19 02:04:23;;;;;;;;;24.75;21.75;;;;;14.54;91.62;102928.91;5018353;28;45446;-82
2021/12/19 02:06:49;;;;;;;;;28.50;17.50;;;;;14.53;91.57;102932.50;5040930;28;45533;-82
2021/12/19 02:09:16;;;;;;;;;27.25;18.75;;;;;14.49;91.32;102940.69;5041188;28;45415;-82
2021/12/19 02:11:42;;;;;;;;;30.00;13.25;;;;;14.49;91.68;102932.69;5037624;28;45229;-82
2021/12/19 02:14:10;;;;;;;;;23.00;17.00;;;;;14.43;91.43;102925.03;5014009;28;46370;-82
2021/12/19 02:16:37;;;;;;;;;28.75;13.00;;;;;14.45;91.54;102925.84;5030775;28;45424;-82
2021/12/19 02:19:04;;;;;;;;;20.75;14.00;;;;;14.49;91.82;102938.03;5037693;28;45446;-82
2021/12/19 02:21:30;;;;;;;;;35.00;19.00;;;;;14.38;91.65;102921.72;5039856;28;45483;-82
2021/12/19 02:24:02;;;;;;;;;29.25;15.25;;;;;14.37;91.60;102907.56;5039392;28;45249;-81
2021/12/19 02:26:27;;;;;;;;;29.50;17.00;;;;;14.32;91.57;102912.22;5013838;28;45737;-81
2021/12/19 02:28:52;;;;;;;;;21.75;16.00;;;;;14.31;91.86;102912.31;5040451;28;46544;-82
2021/12/19 02:31:20;;;;;;;;;14.75;12.25;;;;;14.34;91.40;102910.38;5031908;28;45515;-82
2021/12/19 02:33:58;;;;;;;;;15.75;13.00;;;;;14.31;91.78;102909.66;5036379;28;45216;-82
2021/12/19 02:36:39;;;;;;;;;29.00;17.00;;;;;14.24;92.23;102912.63;5031299;28;47609;-82
2021/12/19 02:49:59;;;;;;;;;25.00;15.75;;;;;14.29;92.62;102898.25;5040321;28;45481;-82
2021/12/19 02:52:25;;;;;;;;;24.00;17.00;;;;;14.35;92.83;102895.28;5040025;28;45586;-83
2021/12/19 02:54:50;;;;;;;;;27.00;16.25;;;;;14.36;92.70;102897.00;5041013;28;45395;-83
2021/12/19 02:57:16;;;;;;;;;26.00;18.50;;;;;14.33;92.61;102891.84;5020806;28;45930;-82
2021/12/19 02:59:41;;;;;;;;;24.25;17.25;;;;;14.35;93.00;102887.31;5036569;28;45987;-82
2021/12/19 03:02:06;;;;;;;;;22.25;17.50;;;;;14.24;92.57;102886.03;5033210;28;45442;-82
2021/12/19 03:04:32;;;;;;;;;20.00;14.00;;;;;14.16;92.59;102888.22;5038570;28;45489;-81
2021/12/19 03:06:57;;;;;;;;;20.75;14.00;;;;;14.16;92.52;102888.22;5033786;28;45510;-83
2021/12/19 03:12:25;;;;;;;;;19.50;14.50;;;;;14.14;92.37;102879.44;5033961;28;45747;-82
2021/12/19 03:20:19;;;;;;;;;22.25;16.75;;;;;14.15;92.58;102865.22;5038743;28;45184;-83
2021/12/19 03:22:44;;;;;;;;;26.50;18.00;;;;;14.22;92.81;102863.13;5037540;28;45486;-82
2021/12/19 03:25:10;;;;;;;;;16.75;10.50;;;;;14.16;92.46;102858.97;5031804;28;45437;-82
2021/12/19 03:27:36;;;;;;;;;25.00;16.75;;;;;14.04;92.88;102861.38;5036719;28;45484;-82
2021/12/19 03:30:05;;;;;;;;;18.75;15.50;;;;;14.09;92.46;102883.28;5021842;28;47959;-82
2021/12/19 03:32:30;;;;;;;;;19.25;14.50;;;;;14.02;92.55;102865.91;5029304;28;45310;-82
2021/12/19 03:34:55;;;;;;;;;17.00;13.00;;;;;14.06;92.83;102873.66;5036328;28;45298;-83
2021/12/19 03:37:21;;;;;;;;;24.00;15.50;;;;;14.05;92.57;102868.41;5021829;28;45496;-82
2021/12/19 03:40:08;;;;;;;;;25.00;18.00;;;;;14.03;92.28;102870.25;5021679;28;47008;-82
2021/12/19 03:42:42;;;;;;;;;18.75;18.75;;;;;14.08;92.55;102879.75;5039808;28;45740;-82
2021/12/19 03:45:10;;;;;;;;;16.75;13.25;;;;;14.11;92.55;102871.59;5038471;28;45415;-83
2021/12/19 03:47:36;;;;;;;;;24.50;16.25;;;;;14.01;92.92;102869.50;5011545;28;45686;-82
2021/12/19 03:50:04;;;;;;;;;24.75;11.00;;;;;14.06;93.01;102881.63;5017812;28;48247;-83
2021/12/19 03:52:30;;;;;;;;;18.50;13.75;;;;;14.06;92.66;102873.66;5031446;28;45622;-82
2021/12/19 03:54:57;;;;;;;;;18.00;11.75;;;;;14.10;93.00;102875.22;5009910;28;45326;-82
2021/12/19 03:57:22;;;;;;;;;18.50;14.25;;;;;14.09;92.99;102872.66;5013761;28;45910;-83
2021/12/19 03:59:49;;;;;;;;;25.75;17.00;;;;;14.17;92.83;102879.31;5019453;28;46054;-82
2021/12/19 04:02:24;;;;;;;;;18.25;13.75;;;;;14.23;92.71;102875.47;5030918;28;45579;-82
2021/12/19 04:04:49;;;;;;;;;20.25;15.75;;;;;14.20;93.13;102868.50;5039716;28;45293;-82
2021/12/19 04:07:15;;;;;;;;;22.25;17.50;;;;;14.05;93.38;102865.75;5038950;28;45339;-82
2021/12/19 04:09:40;;;;;;;;;18.25;13.75;;;;;14.16;92.94;102868.75;5020490;28;46782;-83
2021/12/19 04:12:08;;;;;;;;;18.00;9.75;;;;;14.19;92.70;102865.94;5039186;28;45418;-82
2021/12/19 04:14:33;;;;;;;;;19.25;14.75;;;;;14.16;92.51;102858.97;5032339;28;45437;-83
2021/12/19 04:16:59;;;;;;;;;15.25;15.00;;;;;14.23;92.73;102847.09;5021102;28;45435;-83
2021/12/19 04:19:25;;;;;;;;;25.25;18.00;;;;;14.15;92.76;102848.41;5038502;28;46101;-83
2021/12/19 04:21:51;;;;;;;;;20.25;14.50;;;;;14.16;92.91;102858.97;5035016;28;45431;-82
2021/12/19 04:24:16;;;;;;;;;20.50;13.75;;;;;14.06;92.74;102852.38;5034049;28;45867;-82
2021/12/19 04:26:42;;;;;;;;;17.00;13.25;;;;;14.10;92.95;102853.97;5033473;28;45143;-82
2021/12/19 04:29:07;;;;;;;;;17.25;11.75;;;;;13.99;93.40;102858.09;5037794;28;45325;-82
2021/12/19 04:31:33;;;;;;;;;14.75;12.00;;;;;13.71;93.75;102847.91;5037855;28;45297;-82
2021/12/19 04:33:58;;;;;;;;;20.50;14.25;;;;;13.81;93.88;102855.38;5036045;28;45929;-82
2021/12/19 04:36:31;;;;;;;;;18.00;13.75;;;;;13.93;93.98;102853.06;5041623;28;45374;-82
2021/12/19 05:00:11;;;;;;;;;20.25;12.00;;;;;13.91;93.77;102829.22;5041298;28;45957;-82
2021/12/19 05:15:50;;;;;;;;;20.50;14.75;;;;;13.88;94.56;102823.19;5028568;28;45839;-82
2021/12/19 05:18:15;;;;;;;;;20.00;12.25;;;;;13.66;94.72;102826.88;5029494;28;45352;-82
2021/12/19 05:20:51;;;;;;;;;13.25;9.25;;;;;13.46;95.17;102825.19;5039263;28;46167;-82
2021/12/19 05:23:34;;;;;;;;;12.00;8.75;;;;;13.49;95.58;102825.00;5040447;28;45343;-82
2021/12/19 05:26:00;;;;;;;;;17.25;11.25;;;;;13.35;95.82;102816.84;5032231;28;45463;-82
2021/12/19 05:28:25;;;;;;;;;17.00;10.00;;;;;13.37;95.80;102820.28;5041423;28;45448;-81
2021/12/19 05:30:51;;;;;;;;;15.00;10.25;;;;;13.90;94.09;102813.38;5033184;28;46396;-82
2021/12/19 05:33:17;;;;;;;;;16.50;10.75;;;;;13.32;95.35;102816.09;5040549;28;45410;-83
2021/12/19 05:46:36;;;;;;;;;21.75;12.00;;;;;13.37;96.81;102817.63;5033260;28;45447;-82
2021/12/19 05:49:04;;;;;;;;;20.25;12.25;;;;;13.37;96.14;102811.47;5041125;28;45618;-82
2021/12/19 05:51:30;;;;;;;;;19.50;12.25;;;;;13.44;96.18;102813.75;5040158;28;45465;-82
2021/12/19 05:53:55;;;;;;;;;17.00;11.00;;;;;13.52;96.21;102816.06;5039182;28;45485;-81
2021/12/19 05:56:20;;;;;;;;;17.00;10.50;;;;;13.53;96.48;102816.91;5040788;28;45385;-82
2021/12/19 05:58:46;;;;;;;;;17.75;10.50;;;;;13.42;96.26;102812.97;5020094;28;45376;-82
2021/12/19 06:01:11;;;;;;;;;12.50;11.00;;;;;13.39;96.50;102807.78;5040699;28;46053;-82
2021/12/19 06:03:37;;;;;;;;;17.00;11.50;;;;;13.42;100.00;102804.13;5022154;28;45492;-82
2021/12/19 06:06:02;;;;;;;;;15.75;10.75;;;;;13.55;98.41;102807.09;5030253;28;45300;-82
2021/12/19 06:08:28;;;;;;;;;21.75;16.00;;;;;13.54;98.60;102810.69;5041193;28;45420;-82
2021/12/19 06:10:53;;;;;;;;;19.25;11.00;;;;;13.45;98.18;102807.53;5037565;28;45473;-82
2021/12/19 06:13:19;;;;;;;;;14.75;11.75;;;;;13.39;99.38;102809.56;5018782;28;45726;-82
2021/12/19 06:15:44;;;;;;;;;16.25;12.25;;;;;13.39;98.98;102798.97;5033181;28;45954;-82
2021/12/19 06:18:11;;;;;;;;;17.75;11.75;;;;;13.35;98.86;102814.19;5039878;28;45359;-82
2021/12/19 06:20:36;;;;;;;;;18.25;11.75;;;;;13.51;98.59;102809.00;5036671;28;45459;-81
2021/12/19 06:23:02;;;;;;;;;16.00;12.25;;;;;13.49;98.07;102808.22;5038205;28;45308;-82
2021/12/19 06:25:27;;;;;;;;;15.50;13.25;;;;;13.36;98.74;102800.00;5034393;28;45359;-82
2021/12/19 06:27:53;;;;;;;;;13.00;11.00;;;;;13.44;98.34;102799.63;5028074;28;45427;-81
2021/12/19 06:30:18;;;;;;;;;26.50;11.50;;;;;13.70;97.42;102803.69;5036302;28;46164;-81
2021/12/19 06:32:44;;;;;;;;;21.25;12.00;;;;;13.46;98.81;102803.06;5039972;28;45607;-81
2021/12/19 06:35:17;;;;;;;;;21.25;11.00;;;;;13.47;98.53;102802.97;5039531;28;45542;-82
2021/12/19 06:37:44;;;;;;;;;23.00;12.25;;;;;13.48;98.34;102806.50;5034223;28;45442;-81
2021/12/19 06:40:12;;;;;;;;;14.00;10.75;;;;;13.54;98.12;102800.91;5039744;28;46351;-83
2021/12/19 06:42:38;;;;;;;;;15.25;12.25;;;;;13.54;97.78;102803.56;5038457;28;45803;-83
2021/12/19 06:45:04;;;;;;;;;25.00;16.75;;;;;13.52;97.78;102802.78;5037221;28;45533;-82
2021/12/19 06:47:30;;;;;;;;;12.00;11.50;;;;;13.54;97.74;102805.38;5040554;28;45420;-81
2021/12/19 06:49:56;;;;;;;;;20.50;17.75;;;;;13.42;100.00;102799.69;5040814;28;45333;-81
2021/12/19 06:52:21;;;;;;;;;27.50;17.75;;;;;13.53;100.00;102798.34;5038202;28;45229;-80
2021/12/19 06:54:47;;;;;;;;;23.25;15.50;;;;;13.42;97.85;102804.13;5015194;28;45346;-80
2021/12/19 06:57:12;;;;;;;;;25.50;15.25;;;;;13.57;97.77;102795.44;5038390;28;45470;-81
2021/12/19 06:59:37;;;;;;;;;21.00;17.25;;;;;13.49;97.72;102798.47;5022252;28;46950;-82
2021/12/19 07:02:03;;;;;;;;;9.00;7.00;;;;;13.48;98.21;102806.50;5020370;28;45325;-82
2021/12/19 07:04:29;;;;;;;;;19.75;12.00;;;;;13.66;98.15;102807.41;5036463;28;45422;-83
2021/12/19 07:06:54;;;;;;;;;20.25;12.50;;;;;13.51;97.40;102811.66;5021471;28;45564;-81
2021/12/19 07:09:20;;;;;;;;;14.50;11.00;;;;;13.57;97.05;102807.84;5038452;28;46509;-82
2021/12/19 07:11:46;;;;;;;;;14.75;11.00;;;;;13.39;97.30;102810.44;5025101;28;45498;-83
2021/12/19 07:14:11;;;;;;;;;11.00;9.50;;;;;13.33;97.48;102802.78;5040120;28;46821;-84
2021/12/19 07:16:37;;;;;;;;;15.50;9.25;;;;;13.36;97.30;102805.28;5040212;28;45424;-82
2021/12/19 07:19:02;;;;;;;;;17.50;11.00;;;;;13.30;97.64;102800.25;5028276;28;45411;-79
2021/12/19 07:21:29;;;;;;;;;12.50;7.50;;;;;13.38;97.68;102798.09;5034402;28;45317;-83
2021/12/19 07:23:56;;;;;;;;;22.00;11.25;;;;;13.45;97.57;102796.91;5039909;28;45450;-82
2021/12/19 07:26:21;;;;;;;;;8.00;8.00;;;;;13.44;98.49;102804.94;5033609;28;45965;-83
2021/12/19 07:28:48;;;;;;;;;11.75;9.00;;;;;13.54;98.13;102805.38;5039910;28;45393;-82
2021/12/19 07:31:18;;;;;;;;;20.50;10.75;;;;;13.67;97.53;102802.03;5039705;28;45285;-84
2021/12/19 07:33:45;;;;;;;;;12.50;10.75;;;;;13.49;97.59;102795.81;5040436;28;45489;-85
2021/12/19 07:36:11;;;;;;;;;12.00;10.00;;;;;13.42;97.94;102789.06;5009385;28;45483;-86
2021/12/19 07:38:49;;;;;;;;;13.00;12.00;;;;;13.41;97.53;102791.81;5038940;28;45338;-83
2021/12/19 07:41:17;;;;;;;;;12.00;9.00;;;;;13.43;97.17;102787.28;5017796;28;45766;-84
2021/12/19 07:43:52;;;;;;;;;15.75;9.75;;;;;13.65;97.29;102785.34;5040088;28;45398;-86
2021/12/19 07:46:17;;;;;;;;;13.25;11.00;;;;;13.47;97.41;102783.56;5021255;28;45447;-83
2021/12/19 07:48:43;;;;;;;;;17.25;7.75;;;;;13.39;96.90;102794.53;5032083;28;46256;-85
2021/12/19 07:51:08;;;;;;;;;14.75;7.75;;;;;13.34;97.40;102788.56;5013422;28;45476;-85
2021/12/19 07:53:34;;;;;;;;;9.00;6.75;;;;;13.30;97.67;102786.97;5039952;28;45617;-85
2021/12/19 07:55:59;;;;;;;;;19.50;12.00;;;;;13.39;97.41;102785.69;5032781;28;45504;-85
2021/12/19 07:58:26;;;;;;;;;12.75;8.75;;;;;13.41;97.42;102782.03;5038552;28;45387;-85
2021/12/19 08:00:51;;;;;;;;;18.75;10.00;;;;;13.39;97.20;102789.22;5021918;28;45349;-86
2021/12/19 08:03:17;;;;;;;;;12.00;11.00;;;;;13.27;96.99;102789.81;5024459;28;45234;-85
2021/12/19 08:05:42;;;;;;;;;12.25;10.00;;;;;13.42;96.73;102798.84;5039069;28;45351;-86
2021/12/19 08:08:10;;;;;;;;;12.75;9.25;;;;;13.35;96.55;102790.31;5040585;28;46329;-85
2021/12/19 08:13:06;;;;;;;;;16.50;9.00;;;;;13.37;96.93;102801.72;5043343;28;45312;-86
2021/12/19 08:15:33;;;;;;;;;14.75;7.75;;;;;13.31;96.47;102791.38;5043498;28;45310;-86
2021/12/19 08:17:58;;;;;;;;;15.25;8.00;;;;;13.28;96.74;102799.50;5043156;28;45349;-86
2021/12/19 08:20:25;;;;;;;;;14.00;8.75;;;;;13.55;96.27;102794.69;5043105;28;45304;-85
2021/12/19 08:22:52;;;;;;;;;12.25;11.25;;;;;13.48;95.86;102794.09;5043704;28;45445;-86
2021/12/19 08:25:20;;;;;;;;;11.00;7.00;;;;;13.42;96.55;102791.72;5043686;28;45518;-85
2021/12/19 08:27:47;;;;;;;;;10.25;7.00;;;;;13.46;96.44;102803.06;5043561;28;45267;-85
2021/12/19 08:30:16;;;;;;;;;13.00;9.50;;;;;13.52;95.67;102794.81;5043268;28;45253;-85
2021/12/19 08:32:42;;;;;;;;;12.25;6.75;;;;;13.45;96.02;102794.25;5043566;28;45375;-85
2021/12/19 08:35:09;;;;;;;;;14.25;8.50;;;;;13.44;95.74;102787.22;5025219;28;45338;-85
2021/12/19 08:37:35;;;;;;;;;14.50;10.75;;;;;13.47;95.81;102795.00;5043301;28;45392;-85
2021/12/19 08:40:00;;;;;;;;;12.50;7.00;;;;;13.53;94.82;102783.28;5025322;28;45441;-85
2021/12/19 08:42:28;;;;;;;;;11.00;10.00;;;;;13.63;94.80;102787.22;5042078;28;45226;-85
2021/12/19 08:44:54;;;;;;;;;13.00;10.00;;;;;13.61;94.55;102788.22;5043082;28;45494;-84
2021/12/19 08:47:20;;;;;;;;;19.00;10.75;;;;;13.73;94.80;102784.97;5043098;28;45519;-85
2021/12/19 08:49:48;;;;;;;;;11.75;10.00;;;;;13.72;94.38;102791.22;5045644;28;45482;-85
2021/12/19 08:52:13;;;;;;;;;18.50;12.50;;;;;13.65;94.36;102782.69;5042052;28;45368;-85
2021/12/19 08:54:39;;;;;;;;;17.75;11.25;;;;;13.71;94.21;102793.00;5041783;28;45484;-85
2021/12/19 08:57:04;;;;;;;;;17.75;12.00;;;;;13.76;94.60;102788.31;5042669;28;45489;-85
2021/12/19 08:59:30;;;;;;;;;11.75;8.00;;;;;13.79;94.24;102789.97;5042824;28;45306;-85
2021/12/19 09:01:59;;;;;;;;;14.00;11.75;;;;;13.75;93.88;102791.06;5043021;28;45330;-86
2021/12/19 09:04:25;;;;;;;;;13.00;8.00;;;;;13.74;93.99;102790.22;5029817;28;46557;-85
2021/12/19 09:06:58;;;;;;;;;21.25;12.00;;;;;13.76;94.15;102804.25;5042628;28;46220;-85
2021/12/19 09:09:24;;;;;;;;;15.75;10.75;;;;;13.72;94.33;102799.19;5022421;28;45480;-86
2021/12/19 09:11:52;;;;;;;;;16.00;13.50;;;;;13.74;94.75;102798.19;5042517;28;45214;-86
2021/12/19 09:14:18;;;;;;;;;18.50;14.25;;;;;13.74;94.67;102794.66;5024330;28;45448;-86
2021/12/19 09:16:43;;;;;;;;;15.25;9.75;;;;;13.70;94.52;102790.44;5024856;28;47180;-86
2021/12/19 09:19:09;;;;;;;;;14.00;11.00;;;;;13.73;94.12;102796.47;5023853;28;45386;-86
2021/12/19 09:21:35;;;;;;;;;13.50;10.00;;;;;13.69;94.14;102796.66;5024233;28;45431;-86
2021/12/19 09:24:00;;;;;;;;;25.75;12.50;;;;;13.75;93.69;102801.66;5023620;28;45420;-85
2021/12/19 09:26:26;;;;;;;;;18.25;11.25;;;;;13.76;93.71;102788.31;5024146;28;45883;-85
2021/12/19 09:28:51;;;;;;;;;15.50;12.00;;;;;13.71;93.64;102786.84;5042429;28;45403;-85
2021/12/19 09:31:17;;;;;;;;;15.25;13.25;;;;;13.72;93.72;102792.09;5042449;28;45331;-85
2021/12/19 09:33:42;;;;;;;;;14.25;8.50;;;;;13.66;93.72;102791.50;5024202;28;45500;-85
2021/12/19 09:36:10;;;;;;;;;19.50;11.00;;;;;13.70;93.91;102796.59;5024330;28;47136;-85
2021/12/19 09:38:41;;;;;;;;;16.75;11.25;;;;;13.73;93.83;102803.56;5042101;28;45486;-86
2021/12/19 09:41:13;;;;;;;;;20.25;14.50;;;;;13.62;94.08;102804.06;5042254;28;45299;-86
2021/12/19 09:43:45;;;;;;;;;22.50;13.25;;;;;13.65;94.19;102795.09;5041991;28;45509;-85
2021/12/19 09:46:13;;;;;;;;;20.50;15.00;;;;;13.66;94.33;102804.75;5023934;28;48096;-84
2021/12/19 09:48:42;;;;;;;;;20.00;14.75;;;;;13.72;97.31;102788.56;5041765;28;45735;-84
2021/12/19 09:51:17;;;;;;;;;12.75;11.50;;;;;13.78;94.49;102788.25;5040840;28;45274;-84
2021/12/19 09:53:44;;;;;;;;;23.25;16.50;;;;;13.76;94.73;102787.47;5040669;28;45316;-84
2021/12/19 09:56:10;;;;;;;;;16.50;11.75;;;;;13.72;94.02;102788.56;5034096;28;45404;-85
2021/12/19 09:58:40;;;;;;;;;10.50;9.50;;;;;13.74;94.19;102787.56;5041252;28;45465;-86
2021/12/19 10:01:08;;;;;;;;;11.75;8.00;;;;;13.84;93.95;102790.59;5042026;28;45333;-85
2021/12/19 10:03:36;;;;;;;;;13.75;12.00;;;;;13.88;93.61;102783.34;5041524;28;45234;-85
2021/12/19 10:06:20;;;;;;;;;12.50;8.75;;;;;13.88;93.41;102780.69;5041749;28;45514;-85
2021/12/19 10:09:06;;;;;;;;;13.00;8.00;;;;;13.78;93.04;102769.66;5041997;28;45291;-85
2021/12/19 10:11:45;;;;;;;;;15.00;11.25;;;;;13.79;93.08;102779.34;5041513;28;45596;-85
2021/12/19 10:14:35;;;;;;;;;14.25;12.50;;;;;13.88;92.91;102775.41;5041555;28;45242;-85
2021/12/19 10:17:06;;;;;;;;;18.00;16.25;;;;;13.80;93.30;102767.81;5041500;28;45607;-85
2021/12/19 10:19:49;;;;;;;;;16.75;14.75;;;;;13.85;93.75;102760.47;5041231;28;45234;-85
2021/12/19 10:22:34;;;;;;;;;21.50;16.25;;;;;13.98;93.26;102752.75;5041560;28;45468;-85
2021/12/19 10:25:16;;;;;;;;;15.75;11.75;;;;;13.93;93.06;102758.28;5041425;28;45419;-85
2021/12/19 10:27:43;;;;;;;;;20.25;13.00;;;;;13.91;92.74;102759.31;5040466;28;46151;-86
2021/12/19 10:30:17;;;;;;;;;16.50;11.25;;;;;14.00;92.74;102766.84;5039692;28;45737;-85
2021/12/19 10:32:54;;;;;;;;;24.00;14.50;;;;;14.04;92.45;102755.97;5040329;28;45486;-85
2021/12/19 10:35:43;;;;;;;;;12.50;12.50;;;;;14.13;92.11;102752.84;5040874;28;45391;-85
2021/12/19 10:38:17;;;;;;;;;17.00;13.50;;;;;14.16;91.87;102743.88;5022990;28;47032;-85
2021/12/19 10:40:53;;;;;;;;;21.25;13.00;;;;;14.27;91.41;102761.94;5040954;28;45327;-85
2021/12/19 10:43:20;;;;;;;;;15.25;12.00;;;;;14.12;90.78;102743.16;5022663;28;45275;-85
2021/12/19 10:45:52;;;;;;;;;20.50;15.00;;;;;14.26;90.78;102762.84;5022956;28;45734;-84
2021/12/19 10:48:36;;;;;;;;;19.25;13.50;;;;;14.28;90.69;102763.66;5037382;28;47322;-85
2021/12/19 10:51:04;;;;;;;;;17.75;11.50;;;;;14.32;91.07;102749.25;5041117;28;45324;-85
2021/12/19 10:53:40;;;;;;;;;13.50;13.50;;;;;14.38;91.08;102738.31;5022788;28;45408;-84
2021/12/19 10:56:16;;;;;;;;;25.50;14.00;;;;;14.39;91.04;102734.72;5033674;28;45277;-84
2021/12/19 10:58:51;;;;;;;;;28.25;19.25;;;;;14.41;90.55;102732.84;5027993;28;45411;-84
2021/12/19 11:01:18;;;;;;;;;18.00;14.25;;;;;14.39;90.49;102727.63;5040599;28;45391;-85
2021/12/19 11:03:55;;;;;;;;;23.00;17.00;;;;;14.40;90.15;102725.81;5034502;28;45385;-85
2021/12/19 11:06:22;;;;;;;;;21.50;12.00;;;;;14.35;90.48;102731.34;5022860;28;45599;-84
2021/12/19 11:08:52;;;;;;;;;23.00;17.25;;;;;14.29;90.03;102728.16;5040618;28;46135;-85
2021/12/19 11:11:42;;;;;;;;;26.25;16.75;;;;;14.22;89.58;102723.16;5022246;28;45417;-85
2021/12/19 11:14:13;;;;;;;;;23.00;16.00;;;;;14.19;89.41;102733.09;5039201;28;45350;-85
2021/12/19 11:16:43;;;;;;;;;21.00;15.00;;;;;14.17;89.11;102719.88;5022545;28;45327;-85
2021/12/19 11:19:10;;;;;;;;;15.25;13.00;;;;;14.19;89.33;102725.97;5040142;28;45347;-84
2021/12/19 11:21:36;;;;;;;;;16.25;12.25;;;;;14.26;89.45;102717.69;5022463;28;45497;-85
2021/12/19 11:24:08;;;;;;;;;18.25;13.00;;;;;14.31;88.67;102705.88;5037852;28;45491;-85
2021/12/19 11:26:35;;;;;;;;;23.50;13.75;;;;;14.28;88.94;102699.88;5040158;28;45311;-85
2021/12/19 11:29:01;;;;;;;;;16.75;11.75;;;;;14.24;88.72;102699.16;5040308;28;45544;-85
2021/12/19 11:31:30;;;;;;;;;24.50;16.50;;;;;14.29;88.00;102705.09;5040832;28;45642;-84
2021/12/19 11:34:11;;;;;;;;;22.75;17.00;;;;;14.22;88.49;102691.25;5040402;28;45378;-85
2021/12/19 11:36:42;;;;;;;;;18.50;15.25;;;;;14.22;88.60;102698.38;5018945;28;45584;-85
2021/12/19 11:39:09;;;;;;;;;24.75;17.25;;;;;14.12;88.53;102687.34;5038090;28;46253;-85
2021/12/19 11:41:39;;;;;;;;;21.00;16.75;;;;;14.19;88.55;102688.78;5021755;28;45721;-85
2021/12/19 11:44:08;;;;;;;;;33.00;17.25;;;;;14.14;88.25;102685.47;5026433;28;45521;-85
2021/12/19 11:46:53;;;;;;;;;22.25;16.00;;;;;14.29;88.33;102683.00;5026952;28;45520;-85
2021/12/19 11:49:25;;;;;;;;;25.75;16.75;;;;;14.38;88.45;102674.53;5039885;28;46139;-84
2021/12/19 11:52:30;;;;;;;;;22.25;14.75;;;;;14.40;88.75;102668.22;5040510;28;45279;-84
2021/12/19 11:55:21;;;;;;;;;20.25;17.00;;;;;14.44;88.39;102667.13;5040672;28;45459;-85
2021/12/19 11:58:16;;;;;;;;;24.75;14.25;;;;;14.42;88.61;102655.69;5022414;28;45571;-84
2021/12/19 12:00:55;;;;;;;;;25.75;18.25;;;;;14.46;89.05;102661.72;5022380;28;47029;-84
2021/12/19 12:03:24;;;;;;;;;22.50;16.00;;;;;14.46;88.77;102651.94;5040079;28;45585;-85
2021/12/19 12:06:21;;;;;;;;;23.25;17.75;;;;;14.50;88.44;102649.97;5039002;28;45256;-85
2021/12/19 12:09:07;;;;;;;;;16.00;15.00;;;;;14.58;88.28;102655.72;5040307;28;45447;-84
2021/12/19 12:11:38;;;;;;;;;31.50;19.75;;;;;14.53;88.08;102640.03;5026322;28;45616;-85
2021/12/19 12:14:20;;;;;;;;;21.50;17.00;;;;;14.50;87.92;102648.16;5021991;28;45476;-85
2021/12/19 12:17:08;;;;;;;;;;;;;;;;;;;;;
2021/12/19 12:19:42;;;;;;;;;23.00;17.75;;;;;14.49;88.20;102635.81;5039267;28;72962;-85
2021/12/19 12:22:23;;;;;;;;;32.50;21.50;;;;;14.67;88.35;102633.97;5040858;28;45252;-85
2021/12/19 12:25:14;;;;;;;;;21.75;19.25;;;;;14.63;88.26;102627.09;5011288;28;45456;-85
2021/12/19 12:27:51;;;;;;;;;35.75;26.75;;;;;14.62;88.23;102628.06;5040435;28;45398;-85
2021/12/19 12:30:30;;;;;;;;;28.00;23.25;;;;;14.64;88.57;102622.66;5026358;28;45365;-85
2021/12/19 12:33:01;;;;;;;;;21.75;18.00;;;;;14.74;88.38;102621.22;5029435;28;45415;-85